Time;durP1;ratioP1;P1;durP2;ratioP2;P2;SDS_P1;SDS_P2;PMS_P1;PMS_P2;Temp;Humidity;BMP_temperature;BMP_pressure;BME280_temperature;BME280_humidity;BME280_pressure;Samples;Min_cycle;Max_cycle;Signal;HPM_P1;HPM_P2
2022/08/19 00:00:38;;;;;;;;;;;18.90;99.90;;;;;;4214233;28;19931;-58
2022/08/19 00:02:41;;;;;;;;;;;18.70;99.90;;;;;;4197728;28;20388;-59
2022/08/19 00:04:52;;;;;;;;;;;18.80;99.90;;;;;;4205824;28;20466;-57
2022/08/19 00:06:54;;;;;;;;;;;18.80;99.90;;;;;;4214510;28;19928;-57
2022/08/19 00:08:56;;;;;;;;;;;18.80;99.90;;;;;;4214472;28;19935;-57
2022/08/19 00:10:58;;;;;;;;;;;18.90;99.90;;;;;;4214108;28;20342;-57
2022/08/19 00:13:00;;;;;;;;;;;19.00;99.90;;;;;;4214482;28;20447;-57
2022/08/19 00:15:03;;;;;;;;;;;19.00;99.90;;;;;;4213923;28;20073;-56
2022/08/19 00:17:06;;;;;;;;;;;18.90;99.90;;;;;;4214458;28;20307;-56
2022/08/19 00:19:08;;;;;;;;;;;19.00;99.90;;;;;;4214103;28;20391;-56
2022/08/19 00:21:10;;;;;;;;;;;18.90;99.90;;;;;;4214255;28;19931;-56
2022/08/19 00:23:12;;;;;;;;;;;18.90;99.90;;;;;;4214079;28;20528;-57
2022/08/19 00:25:14;;;;;;;;;;;18.90;99.90;;;;;;4214195;28;19924;-56
2022/08/19 00:27:16;;;;;;;;;;;18.80;99.90;;;;;;4214084;28;19932;-56
2022/08/19 00:29:27;;;;;;;;;;;18.80;99.90;;;;;;4214510;28;19935;-55
2022/08/19 00:31:30;;;;;;;;;;;18.80;99.90;;;;;;4213905;28;20373;-55
2022/08/19 00:33:33;;;;;;;;;;;18.90;99.90;;;;;;4213774;28;19930;-57
2022/08/19 00:35:35;;;;;;;;;;;18.80;99.90;;;;;;4214257;28;19931;-56
2022/08/19 00:37:38;;;;;;;;;;;18.70;99.90;;;;;;4213925;28;20026;-56
2022/08/19 00:39:40;;;;;;;;;;;18.80;99.90;;;;;;4214157;28;19932;-56
2022/08/19 00:41:43;;;;;;;;;;;18.80;99.90;;;;;;4213645;28;19931;-56
2022/08/19 00:43:56;;;;;;;;;;;18.70;99.90;;;;;;4214177;28;19924;-56
2022/08/19 00:45:58;;;;;;;;;;;18.70;99.90;;;;;;4213858;28;19998;-56
2022/08/19 00:48:03;;;;;;;;;;;18.70;99.90;;;;;;4213560;28;20339;-56
2022/08/19 00:50:06;;;;;;;;;;;18.70;99.90;;;;;;4213624;28;19924;-56
2022/08/19 00:52:18;;;;;;;;;;;18.70;99.90;;;;;;4213933;28;19928;-57
2022/08/19 00:54:21;;;;;;;;;;;18.60;99.90;;;;;;4213944;28;19924;-57
2022/08/19 00:56:30;;;;;;;;;;;18.70;99.90;;;;;;4213571;28;20038;-57
2022/08/19 00:58:33;;;;;;;;;;;18.70;99.90;;;;;;4213603;28;20019;-56
2022/08/19 01:00:36;;;;;;;;;;;18.70;99.90;;;;;;4213794;28;19928;-55
2022/08/19 01:02:39;;;;;;;;;;;18.70;99.90;;;;;;4213543;28;19928;-55
2022/08/19 01:04:41;;;;;;;;;;;18.70;99.90;;;;;;4195210;28;19978;-56
2022/08/19 01:06:43;;;;;;;;;;;18.70;99.90;;;;;;4213710;28;19924;-55
2022/08/19 01:08:45;;;;;;;;;;;18.70;99.90;;;;;;4213934;28;19928;-56
2022/08/19 01:10:49;;;;;;;;;;;18.70;99.90;;;;;;4213361;28;19932;-55
2022/08/19 01:12:52;;;;;;;;;;;18.70;99.90;;;;;;4196447;28;20403;-55
2022/08/19 01:14:55;;;;;;;;;;;18.60;99.90;;;;;;4204033;28;20291;-55
2022/08/19 01:16:59;;;;;;;;;;;18.70;99.90;;;;;;4213175;28;19932;-55
2022/08/19 01:19:02;;;;;;;;;;;18.70;99.90;;;;;;4213576;28;19928;-55
2022/08/19 01:21:07;;;;;;;;;;;18.70;99.90;;;;;;4213005;28;20065;-56
2022/08/19 01:23:09;;;;;;;;;;;18.70;99.90;;;;;;4213745;28;20365;-56
2022/08/19 01:25:12;;;;;;;;;;;18.70;99.90;;;;;;4213031;28;19963;-56
2022/08/19 01:27:16;;;;;;;;;;;18.70;99.90;;;;;;4213046;28;19924;-56
2022/08/19 01:29:18;;;;;;;;;;;18.80;99.90;;;;;;4213166;28;19935;-56
2022/08/19 01:31:22;;;;;;;;;;;18.80;99.90;;;;;;4212991;28;19978;-56
2022/08/19 01:33:30;;;;;;;;;;;18.80;99.90;;;;;;4194603;28;19964;-55
2022/08/19 01:35:36;;;;;;;;;;;18.80;99.90;;;;;;4213467;28;19924;-57
2022/08/19 01:37:44;;;;;;;;;;;18.80;99.90;;;;;;4194981;28;19975;-56
2022/08/19 01:39:47;;;;;;;;;;;18.80;99.90;;;;;;4213029;28;20015;-56
2022/08/19 01:41:49;;;;;;;;;;;18.90;99.90;;;;;;4212514;28;19974;-55
2022/08/19 01:43:52;;;;;;;;;;;18.80;99.90;;;;;;4212911;28;19978;-56
2022/08/19 01:46:12;;;;;;;;;;;18.90;99.90;;;;;;4213146;28;19928;-56
2022/08/19 01:48:14;;;;;;;;;;;18.90;99.90;;;;;;4212291;28;19924;-56
2022/08/19 01:50:16;;;;;;;;;;;18.90;99.90;;;;;;4212788;28;20368;-56
2022/08/19 01:52:18;;;;;;;;;;;18.80;99.90;;;;;;4212612;28;19928;-55
2022/08/19 01:54:22;;;;;;;;;;;18.90;99.90;;;;;;4194431;28;19974;-55
2022/08/19 01:56:28;;;;;;;;;;;18.80;99.90;;;;;;4212987;28;20066;-55
2022/08/19 01:58:33;;;;;;;;;;;18.70;99.90;;;;;;4212937;28;19924;-55
2022/08/19 02:00:35;;;;;;;;;;;18.70;99.90;;;;;;4194401;28;20634;-55
2022/08/19 02:02:39;;;;;;;;;;;18.70;99.90;;;;;;4212316;28;19927;-55
2022/08/19 02:04:41;;;;;;;;;;;18.70;99.90;;;;;;4212605;28;20395;-55
2022/08/19 02:06:42;;;;;;;;;;;18.70;99.90;;;;;;4212236;28;20020;-56
2022/08/19 02:08:48;;;;;;;;;;;18.70;99.90;;;;;;4212416;28;19924;-55
2022/08/19 02:10:53;;;;;;;;;;;18.70;99.90;;;;;;4212905;28;19928;-55
2022/08/19 02:12:55;;;;;;;;;;;18.70;99.90;;;;;;4211637;28;19924;-56
2022/08/19 02:14:58;;;;;;;;;;;18.60;99.90;;;;;;4194505;28;19936;-56
2022/08/19 02:17:00;;;;;;;;;;;18.70;99.90;;;;;;4212328;28;19928;-55
2022/08/19 02:19:03;;;;;;;;;;;18.70;99.90;;;;;;4194480;28;19970;-55
2022/08/19 02:21:05;;;;;;;;;;;18.60;99.90;;;;;;4212456;28;20344;-56
2022/08/19 02:23:07;;;;;;;;;;;18.60;99.90;;;;;;4212289;28;20187;-56
2022/08/19 02:25:15;;;;;;;;;;;18.60;99.90;;;;;;4212251;28;19955;-56
2022/08/19 02:27:16;;;;;;;;;;;18.60;99.90;;;;;;4212391;28;20462;-55
2022/08/19 02:29:18;;;;;;;;;;;18.60;99.90;;;;;;4212412;28;19935;-55
2022/08/19 02:31:21;;;;;;;;;;;18.60;99.90;;;;;;4211871;28;20366;-55
2022/08/19 02:33:23;;;;;;;;;;;18.70;99.90;;;;;;4212352;28;19931;-56
2022/08/19 02:35:25;;;;;;;;;;;18.60;99.90;;;;;;4212367;28;19977;-57
2022/08/19 02:39:52;;;;;;;;;;;18.50;99.90;;;;;;4194191;28;19929;-55
2022/08/19 02:41:54;;;;;;;;;;;18.60;99.90;;;;;;4211888;28;19924;-55
2022/08/19 02:43:57;;;;;;;;;;;18.60;99.90;;;;;;4177293;28;20029;-55
2022/08/19 02:46:21;;;;;;;;;;;18.50;99.90;;;;;;4212140;28;20009;-55
2022/08/19 02:48:24;;;;;;;;;;;18.50;99.90;;;;;;4211663;28;19968;-55
2022/08/19 02:50:26;;;;;;;;;;;18.60;99.90;;;;;;4212131;28;19986;-56
2022/08/19 02:52:28;;;;;;;;;;;18.70;99.90;;;;;;4212234;28;19938;-55
2022/08/19 02:54:30;;;;;;;;;;;18.60;99.90;;;;;;4194130;28;19939;-55
2022/08/19 02:56:34;;;;;;;;;;;18.60;99.90;;;;;;4194003;28;19924;-55
2022/08/19 02:58:36;;;;;;;;;;;18.70;99.90;;;;;;4211967;28;20042;-54
2022/08/19 03:00:42;;;;;;;;;;;18.70;99.90;;;;;;4212109;28;20088;-56
2022/08/19 03:02:45;;;;;;;;;;;18.70;99.90;;;;;;4211723;28;19946;-57
2022/08/19 03:04:47;;;;;;;;;;;18.80;99.90;;;;;;4212383;28;19964;-56
2022/08/19 03:06:49;;;;;;;;;;;18.80;99.90;;;;;;4211964;28;20405;-55
2022/08/19 03:08:51;;;;;;;;;;;18.80;99.90;;;;;;4211760;28;20503;-56
2022/08/19 03:10:53;;;;;;;;;;;18.70;99.90;;;;;;4212186;28;19946;-54
2022/08/19 03:12:55;;;;;;;;;;;18.70;99.90;;;;;;4211721;28;19974;-55
2022/08/19 03:14:57;;;;;;;;;;;18.70;99.90;;;;;;4212023;28;19928;-56
2022/08/19 03:16:59;;;;;;;;;;;18.70;99.90;;;;;;4212111;28;19928;-55
2022/08/19 03:19:01;;;;;;;;;;;18.70;99.90;;;;;;4211781;28;19928;-55
2022/08/19 03:21:03;;;;;;;;;;;18.70;99.90;;;;;;4212051;28;20339;-54
2022/08/19 03:23:05;;;;;;;;;;;18.70;99.90;;;;;;4193737;28;20362;-56
2022/08/19 03:25:07;;;;;;;;;;;18.70;99.90;;;;;;4212791;28;20340;-55
2022/08/19 03:27:09;;;;;;;;;;;18.60;99.90;;;;;;4215208;28;19972;-55
2022/08/19 03:29:12;;;;;;;;;;;18.60;99.90;;;;;;4214902;28;19924;-55
2022/08/19 03:31:14;;;;;;;;;;;18.60;99.90;;;;;;4215211;28;19950;-56
2022/08/19 03:33:36;;;;;;;;;;;18.60;99.90;;;;;;4220490;28;19927;-56
2022/08/19 03:35:38;;;;;;;;;;;18.60;99.90;;;;;;4214933;28;20019;-55
2022/08/19 03:37:42;;;;;;;;;;;18.70;99.90;;;;;;4214965;28;19924;-55
2022/08/19 03:39:44;;;;;;;;;;;18.70;99.90;;;;;;4214823;28;19928;-55
2022/08/19 03:41:48;;;;;;;;;;;18.70;99.90;;;;;;4214647;28;20015;-56
2022/08/19 03:43:51;;;;;;;;;;;18.70;99.90;;;;;;4196565;28;20015;-56
2022/08/19 03:46:11;;;;;;;;;;;18.80;99.90;;;;;;4214767;28;20367;-55
2022/08/19 03:48:13;;;;;;;;;;;18.80;99.90;;;;;;4214182;28;19924;-55
2022/08/19 03:50:15;;;;;;;;;;;18.80;99.90;;;;;;4214677;28;19973;-55
2022/08/19 03:52:17;;;;;;;;;;;18.90;99.90;;;;;;4214687;28;20031;-55
2022/08/19 03:54:22;;;;;;;;;;;18.90;99.90;;;;;;4214473;28;19978;-55
2022/08/19 03:56:25;;;;;;;;;;;18.90;99.90;;;;;;4196869;28;20162;-55
2022/08/19 03:58:29;;;;;;;;;;;18.90;99.90;;;;;;4214681;28;19958;-55
2022/08/19 04:00:32;;;;;;;;;;;19.00;99.90;;;;;;4214315;28;19978;-56
2022/08/19 04:02:34;;;;;;;;;;;19.00;99.90;;;;;;4214638;28;19938;-56
2022/08/19 04:04:37;;;;;;;;;;;19.00;99.90;;;;;;4196343;28;20020;-56
2022/08/19 04:06:39;;;;;;;;;;;18.90;99.90;;;;;;4214384;28;19991;-57
2022/08/19 04:08:42;;;;;;;;;;;18.90;99.90;;;;;;4196436;28;19982;-55
2022/08/19 04:10:44;;;;;;;;;;;19.00;99.90;;;;;;4214595;28;19928;-56
2022/08/19 04:12:46;;;;;;;;;;;19.00;99.90;;;;;;4214483;28;19970;-55
2022/08/19 04:14:48;;;;;;;;;;;19.10;99.90;;;;;;4196159;28;19934;-55
2022/08/19 04:16:51;;;;;;;;;;;19.10;99.90;;;;;;4214250;28;19928;-56
2022/08/19 04:18:54;;;;;;;;;;;19.00;99.90;;;;;;4214295;28;20314;-55
2022/08/19 04:20:56;;;;;;;;;;;18.90;99.90;;;;;;4214389;28;19970;-56
2022/08/19 04:22:58;;;;;;;;;;;18.90;99.90;;;;;;4195804;28;19928;-55
2022/08/19 04:25:00;;;;;;;;;;;18.80;99.90;;;;;;4224527;28;19927;-55
2022/08/19 04:27:02;;;;;;;;;;;18.80;99.90;;;;;;4213413;28;19928;-56
2022/08/19 04:29:09;;;;;;;;;;;18.80;99.90;;;;;;4214413;28;20287;-54
2022/08/19 04:31:18;;;;;;;;;;;18.80;99.90;;;;;;4206813;28;19928;-56
2022/08/19 04:33:22;;;;;;;;;;;18.80;99.90;;;;;;4214054;28;19934;-56
2022/08/19 04:35:27;;;;;;;;;;;18.80;99.90;;;;;;4213564;28;19932;-55
2022/08/19 04:37:32;;;;;;;;;;;18.80;99.90;;;;;;4214106;28;19959;-56
2022/08/19 04:44:19;;;;;;;;;;;18.80;99.90;;;;;;4215400;28;20600;-55
2022/08/19 04:46:21;;;;;;;;;;;18.80;99.90;;;;;;4218855;28;19978;-55
2022/08/19 04:48:40;;;;;;;;;;;18.80;99.90;;;;;;4205530;28;20009;-55
2022/08/19 04:50:44;;;;;;;;;;;18.80;99.90;;;;;;4213931;28;19934;-55
2022/08/19 04:52:46;;;;;;;;;;;18.80;99.90;;;;;;4213607;28;20053;-55
2022/08/19 04:54:48;;;;;;;;;;;18.80;99.90;;;;;;4213769;28;19934;-55
2022/08/19 04:56:51;;;;;;;;;;;18.80;99.90;;;;;;4213502;28;20575;-55
2022/08/19 04:58:54;;;;;;;;;;;18.80;99.90;;;;;;4213774;28;20019;-55
2022/08/19 05:00:56;;;;;;;;;;;18.80;99.90;;;;;;4213203;28;20406;-56
2022/08/19 05:02:58;;;;;;;;;;;18.80;99.90;;;;;;4213467;28;19928;-55
2022/08/19 05:05:00;;;;;;;;;;;18.80;99.90;;;;;;4213727;28;19928;-56
2022/08/19 05:07:02;;;;;;;;;;;18.80;99.90;;;;;;4213362;28;19928;-55
2022/08/19 05:09:05;;;;;;;;;;;18.80;99.90;;;;;;4213430;28;19935;-55
2022/08/19 05:11:17;;;;;;;;;;;18.80;99.90;;;;;;4213354;28;20503;-56
2022/08/19 05:13:20;;;;;;;;;;;18.80;99.90;;;;;;4218596;28;20771;-55
2022/08/19 05:15:22;;;;;;;;;;;18.80;99.90;;;;;;4213121;28;19928;-56
2022/08/19 05:17:25;;;;;;;;;;;18.80;99.90;;;;;;4211883;28;19928;-56
2022/08/19 05:24:10;;;;;;;;;;;18.90;99.90;;;;;;4218394;28;20026;-57
2022/08/19 05:26:12;;;;;;;;;;;18.90;99.90;;;;;;4212054;28;20388;-57
2022/08/19 05:28:14;;;;;;;;;;;18.90;99.90;;;;;;4228497;28;19928;-57
2022/08/19 05:30:16;;;;;;;;;;;19.00;99.90;;;;;;4219979;28;19928;-56
2022/08/19 05:32:19;;;;;;;;;;;19.00;99.90;;;;;;4213267;28;19977;-57
2022/08/19 05:34:22;;;;;;;;;;;19.10;99.90;;;;;;4213247;28;19928;-56
2022/08/19 05:36:27;;;;;;;;;;;19.20;99.90;;;;;;4213051;28;19924;-57
2022/08/19 05:38:29;;;;;;;;;;;19.00;99.90;;;;;;4213064;28;20293;-58
2022/08/19 05:40:33;;;;;;;;;;;19.00;99.90;;;;;;4212951;28;20026;-56
2022/08/19 05:42:35;;;;;;;;;;;19.10;99.90;;;;;;4212656;28;20334;-56
2022/08/19 05:44:39;;;;;;;;;;;19.10;99.90;;;;;;4213010;28;20451;-56
2022/08/19 05:46:42;;;;;;;;;;;19.10;99.90;;;;;;4212318;28;20320;-58
2022/08/19 05:48:45;;;;;;;;;;;19.00;99.90;;;;;;4212878;28;19928;-57
2022/08/19 05:50:50;;;;;;;;;;;19.10;99.90;;;;;;4213178;28;20023;-56
2022/08/19 05:52:52;;;;;;;;;;;19.20;99.90;;;;;;4212594;28;19934;-56
2022/08/19 05:54:55;;;;;;;;;;;19.20;99.90;;;;;;4212550;28;20408;-57
2022/08/19 05:56:57;;;;;;;;;;;19.30;99.90;;;;;;4212773;28;19963;-56
2022/08/19 05:58:59;;;;;;;;;;;19.30;99.90;;;;;;4212766;28;19963;-57
2022/08/19 06:01:05;;;;;;;;;;;19.30;99.90;;;;;;4212820;28;19928;-57
2022/08/19 06:03:06;;;;;;;;;;;19.30;99.90;;;;;;4195863;28;19959;-56
2022/08/19 06:05:13;;;;;;;;;;;19.30;99.90;;;;;;4204070;28;19924;-56
2022/08/19 06:07:15;;;;;;;;;;;19.30;99.90;;;;;;4212442;28;19924;-56
2022/08/19 06:09:18;;;;;;;;;;;19.30;99.90;;;;;;4212226;28;20030;-56
2022/08/19 06:11:22;;;;;;;;;;;19.30;99.90;;;;;;4212342;28;20553;-56
2022/08/19 06:13:25;;;;;;;;;;;19.30;99.90;;;;;;4212548;28;20167;-57
2022/08/19 06:15:28;;;;;;;;;;;19.40;99.90;;;;;;4226578;28;19924;-57
2022/08/19 06:17:30;;;;;;;;;;;19.40;99.90;;;;;;4217481;28;19932;-57
2022/08/19 06:19:33;;;;;;;;;;;19.50;99.90;;;;;;4203717;28;19981;-56
2022/08/19 06:21:37;;;;;;;;;;;19.50;99.90;;;;;;4211528;28;20397;-57
2022/08/19 06:23:39;;;;;;;;;;;19.50;99.90;;;;;;4212616;28;19928;-56
2022/08/19 06:25:41;;;;;;;;;;;19.50;99.90;;;;;;4212395;28;19927;-57
2022/08/19 06:27:43;;;;;;;;;;;19.60;99.90;;;;;;4212277;28;19924;-57
2022/08/19 06:30:05;;;;;;;;;;;19.70;99.90;;;;;;4212425;28;19966;-57
2022/08/19 06:32:07;;;;;;;;;;;19.70;99.90;;;;;;4212304;28;19932;-56
2022/08/19 06:34:09;;;;;;;;;;;19.70;99.90;;;;;;4212153;28;19946;-56
2022/08/19 06:36:21;;;;;;;;;;;19.80;99.90;;;;;;4212187;28;19978;-57
2022/08/19 06:38:25;;;;;;;;;;;19.90;99.90;;;;;;4212042;28;19931;-57
2022/08/19 06:40:27;;;;;;;;;;;19.80;99.90;;;;;;4212560;28;19969;-57
2022/08/19 06:42:30;;;;;;;;;;;19.80;99.90;;;;;;4211808;28;19935;-57
2022/08/19 06:44:34;;;;;;;;;;;19.80;99.90;;;;;;4212355;28;20011;-57
2022/08/19 06:46:36;;;;;;;;;;;19.90;99.90;;;;;;4211704;28;19928;-56
2022/08/19 06:48:39;;;;;;;;;;;20.00;99.90;;;;;;4212158;28;20019;-56
2022/08/19 06:50:47;;;;;;;;;;;19.90;99.90;;;;;;4194670;28;19932;-56
2022/08/19 06:52:49;;;;;;;;;;;19.90;99.90;;;;;;4211962;28;19924;-56
2022/08/19 06:54:51;;;;;;;;;;;19.90;99.90;;;;;;4212016;28;19928;-56
2022/08/19 06:57:03;;;;;;;;;;;20.10;99.90;;;;;;4195034;28;19976;-57
2022/08/19 06:59:08;;;;;;;;;;;20.00;99.90;;;;;;4213484;28;19928;-56
2022/08/19 07:01:10;;;;;;;;;;;20.10;99.90;;;;;;4215559;28;19956;-56
2022/08/19 07:03:12;;;;;;;;;;;20.00;99.90;;;;;;4215559;28;19927;-56
2022/08/19 07:05:14;;;;;;;;;;;20.10;99.90;;;;;;4197570;28;19924;-56
2022/08/19 07:07:17;;;;;;;;;;;20.10;99.90;;;;;;4215620;28;19981;-56
2022/08/19 07:09:21;;;;;;;;;;;20.10;99.90;;;;;;4215010;28;20346;-56
2022/08/19 07:11:24;;;;;;;;;;;20.20;99.90;;;;;;4215448;28;20015;-56
2022/08/19 07:13:25;;;;;;;;;;;20.30;99.90;;;;;;4215039;28;19955;-56
2022/08/19 07:15:27;;;;;;;;;;;20.60;99.90;;;;;;4215346;28;19924;-57
2022/08/19 07:17:29;;;;;;;;;;;21.00;99.90;;;;;;4215304;28;20349;-56
2022/08/19 07:19:32;;;;;;;;;;;21.00;99.90;;;;;;4215383;28;19928;-57
2022/08/19 07:21:35;;;;;;;;;;;21.10;99.90;;;;;;4215014;28;19932;-57
2022/08/19 07:23:38;;;;;;;;;;;21.30;99.90;;;;;;4215152;28;19928;-55
2022/08/19 07:25:40;;;;;;;;;;;21.40;99.90;;;;;;4197002;28;20400;-56
2022/08/19 07:27:44;;;;;;;;;;;21.30;99.90;;;;;;4197304;28;19929;-57
2022/08/19 07:29:47;;;;;;;;;;;21.40;99.90;;;;;;4215196;28;19924;-56
2022/08/19 07:31:55;;;;;;;;;;;21.40;99.90;;;;;;4214952;28;19928;-56
2022/08/19 07:33:57;;;;;;;;;;;21.50;99.90;;;;;;4214999;28;19927;-57
2022/08/19 07:35:59;;;;;;;;;;;21.70;99.90;;;;;;4214961;28;20311;-56
2022/08/19 07:38:02;;;;;;;;;;;21.90;99.90;;;;;;4214867;28;19950;-57
2022/08/19 07:40:06;;;;;;;;;;;21.70;99.90;;;;;;4215039;28;20019;-56
2022/08/19 07:42:09;;;;;;;;;;;21.60;99.90;;;;;;4196954;28;20015;-56
2022/08/19 07:44:12;;;;;;;;;;;21.70;99.90;;;;;;4215021;28;20322;-56
2022/08/19 07:46:14;;;;;;;;;;;21.80;99.90;;;;;;4196627;28;19925;-57
2022/08/19 07:48:16;;;;;;;;;;;21.80;99.90;;;;;;4214174;28;19934;-56
2022/08/19 07:50:19;;;;;;;;;;;21.70;99.90;;;;;;4214700;28;20395;-56
2022/08/19 07:52:22;;;;;;;;;;;21.70;99.90;;;;;;4214799;28;19939;-57
2022/08/19 07:54:24;;;;;;;;;;;21.70;99.90;;;;;;4214580;28;19924;-56
2022/08/19 07:56:26;;;;;;;;;;;21.50;99.90;;;;;;4214654;28;20341;-57
2022/08/19 07:58:29;;;;;;;;;;;21.40;99.90;;;;;;4214612;28;19931;-56
2022/08/19 08:00:31;;;;;;;;;;;21.70;99.90;;;;;;4214626;28;19974;-58
2022/08/19 08:02:33;;;;;;;;;;;22.10;99.90;;;;;;4214636;28;20456;-57
2022/08/19 08:09:21;;;;;;;;;;;22.10;99.90;;;;;;4214414;28;19977;-56
2022/08/19 08:11:23;;;;;;;;;;;22.20;99.90;;;;;;4219039;28;19928;-57
2022/08/19 08:13:26;;;;;;;;;;;22.20;99.90;;;;;;4214274;28;20302;-56
2022/08/19 08:15:28;;;;;;;;;;;22.20;99.90;;;;;;4214507;28;20027;-55
2022/08/19 08:17:31;;;;;;;;;;;22.00;99.90;;;;;;4214088;28;20379;-57
2022/08/19 08:19:50;;;;;;;;;;;22.10;99.90;;;;;;4214231;28;20014;-56
2022/08/19 08:21:53;;;;;;;;;;;22.10;99.90;;;;;;4214180;28;20349;-55
2022/08/19 08:23:55;;;;;;;;;;;22.20;99.90;;;;;;4214318;28;19963;-56
2022/08/19 08:25:58;;;;;;;;;;;22.00;99.90;;;;;;4214357;28;19977;-56
2022/08/19 08:28:00;;;;;;;;;;;21.90;99.90;;;;;;4214101;28;19935;-57
2022/08/19 08:30:03;;;;;;;;;;;22.00;99.90;;;;;;4214238;28;19939;-56
2022/08/19 08:32:04;;;;;;;;;;;21.80;99.90;;;;;;4196067;28;19932;-57
2022/08/19 08:34:16;;;;;;;;;;;22.10;99.90;;;;;;4195936;28;19955;-56
2022/08/19 08:36:18;;;;;;;;;;;22.40;99.90;;;;;;4214208;28;19953;-57
2022/08/19 08:38:20;;;;;;;;;;;22.50;99.90;;;;;;4214050;28;19935;-56
2022/08/19 08:40:49;;;;;;;;;;;22.50;99.90;;;;;;4214084;28;20655;-56
2022/08/19 08:43:12;;;;;;;;;;;22.70;99.90;;;;;;4196300;28;20025;-56
2022/08/19 08:45:16;;;;;;;;;;;22.80;99.90;;;;;;4197415;28;19978;-57
2022/08/19 08:47:19;;;;;;;;;;;22.90;99.90;;;;;;4213322;28;20380;-56
2022/08/19 08:49:33;;;;;;;;;;;22.80;99.90;;;;;;4214009;28;20383;-57
2022/08/19 08:51:38;;;;;;;;;;;22.90;99.90;;;;;;4213908;28;20021;-57
2022/08/19 08:53:44;;;;;;;;;;;23.20;99.90;;;;;;4213454;28;19953;-57
2022/08/19 08:55:47;;;;;;;;;;;23.50;99.90;;;;;;4213892;28;20387;-57
2022/08/19 08:57:51;;;;;;;;;;;23.40;99.90;;;;;;4213804;28;19930;-56
2022/08/19 08:59:53;;;;;;;;;;;23.40;99.90;;;;;;4214027;28;19981;-57
2022/08/19 09:01:55;;;;;;;;;;;23.50;99.90;;;;;;4213673;28;19924;-56
2022/08/19 09:03:57;;;;;;;;;;;23.50;99.90;;;;;;4213449;28;19924;-56
2022/08/19 09:06:06;;;;;;;;;;;23.60;99.90;;;;;;4213704;28;20399;-58
2022/08/19 09:08:39;;;;;;;;;;;23.70;99.90;;;;;;4213754;28;19973;-57
2022/08/19 09:10:48;;;;;;;;;;;23.70;99.90;;;;;;4210647;28;19924;-57
2022/08/19 09:13:01;;;;;;;;;;;23.60;99.90;;;;;;4213720;28;19924;-57
2022/08/19 09:15:07;;;;;;;;;;;23.60;99.90;;;;;;4213446;28;19974;-56
2022/08/19 09:17:09;;;;;;;;;;;23.70;99.90;;;;;;4213649;28;19924;-57
2022/08/19 09:19:11;;;;;;;;;;;23.50;99.90;;;;;;4207629;28;20382;-57
2022/08/19 09:21:14;;;;;;;;;;;23.50;99.90;;;;;;4207079;28;19954;-58
2022/08/19 09:23:16;;;;;;;;;;;23.40;99.90;;;;;;4208943;28;19950;-57
2022/08/19 09:25:21;;;;;;;;;;;23.40;99.90;;;;;;4203789;28;20062;-56
2022/08/19 09:27:26;;;;;;;;;;;23.50;99.90;;;;;;4207899;28;19924;-57
2022/08/19 09:29:43;;;;;;;;;;;23.60;99.90;;;;;;4210750;28;19951;-57
2022/08/19 09:31:46;;;;;;;;;;;23.80;99.90;;;;;;4205417;28;20393;-56
2022/08/19 09:33:48;;;;;;;;;;;24.00;99.90;;;;;;4200739;28;19932;-58
2022/08/19 09:36:02;;;;;;;;;;;24.30;99.90;;;;;;4208933;28;19936;-56
2022/08/19 09:38:04;;;;;;;;;;;24.30;99.90;;;;;;4228506;28;20026;-57
2022/08/19 09:40:06;;;;;;;;;;;24.20;99.90;;;;;;4209836;28;19935;-57
2022/08/19 09:42:13;;;;;;;;;;;24.00;99.90;;;;;;4204045;28;19932;-56
2022/08/19 09:44:17;;;;;;;;;;;24.00;99.90;;;;;;4201420;28;19994;-57
2022/08/19 09:46:20;;;;;;;;;;;24.10;99.90;;;;;;4197980;28;19979;-56
2022/08/19 09:48:22;;;;;;;;;;;24.00;99.90;;;;;;4211978;28;20359;-57
2022/08/19 09:50:24;;;;;;;;;;;23.80;99.90;;;;;;4206119;28;19928;-56
2022/08/19 09:52:26;;;;;;;;;;;24.00;99.90;;;;;;4210433;28;19924;-56
2022/08/19 09:54:34;;;;;;;;;;;24.30;99.90;;;;;;4206280;28;20394;-57
2022/08/19 09:56:36;;;;;;;;;;;24.00;99.90;;;;;;4199277;28;19936;-57
2022/08/19 09:58:39;;;;;;;;;;;23.80;99.90;;;;;;4207758;28;20066;-57
2022/08/19 10:00:41;;;;;;;;;;;23.80;99.90;;;;;;4212773;28;19931;-57
2022/08/19 10:02:43;;;;;;;;;;;23.80;99.90;;;;;;4212030;28;19928;-58
2022/08/19 10:07:06;;;;;;;;;;;23.60;99.90;;;;;;4208704;28;20015;-56
2022/08/19 10:09:10;;;;;;;;;;;23.80;99.90;;;;;;4205438;28;19975;-55
2022/08/19 10:11:15;;;;;;;;;;;24.00;99.90;;;;;;4212817;28;19936;-57
2022/08/19 10:13:30;;;;;;;;;;;23.90;99.90;;;;;;4220859;28;19928;-57
2022/08/19 10:15:34;;;;;;;;;;;24.10;99.90;;;;;;4210848;28;19932;-57
2022/08/19 10:17:48;;;;;;;;;;;24.00;99.90;;;;;;4209531;28;19928;-56
2022/08/19 10:19:56;;;;;;;;;;;24.00;99.90;;;;;;4192116;28;19933;-57
2022/08/19 10:21:58;;;;;;;;;;;23.80;99.90;;;;;;4202725;28;19951;-57
2022/08/19 10:24:04;;;;;;;;;;;23.90;99.90;;;;;;4208930;28;19932;-59
2022/08/19 10:26:06;;;;;;;;;;;24.00;99.90;;;;;;4213863;28;19928;-56
2022/08/19 10:28:11;;;;;;;;;;;23.60;99.90;;;;;;4214711;28;19998;-57
2022/08/19 10:30:13;;;;;;;;;;;23.40;99.90;;;;;;4208582;28;19954;-57
2022/08/19 10:32:15;;;;;;;;;;;23.50;99.90;;;;;;4219752;28;19941;-57
2022/08/19 10:34:17;;;;;;;;;;;23.40;99.90;;;;;;4204963;28;20070;-59
2022/08/19 10:36:30;;;;;;;;;;;23.30;99.90;;;;;;4186046;28;20085;-57
2022/08/19 10:38:33;;;;;;;;;;;23.20;99.90;;;;;;4180304;28;20023;-58
2022/08/19 10:40:35;;;;;;;;;;;23.20;99.90;;;;;;4199264;28;20300;-56
2022/08/19 10:42:38;;;;;;;;;;;23.00;99.90;;;;;;4201090;28;20416;-57
2022/08/19 10:44:42;;;;;;;;;;;23.00;99.90;;;;;;4210009;28;20212;-57
2022/08/19 10:46:44;;;;;;;;;;;23.00;99.90;;;;;;4202272;28;19927;-58
2022/08/19 10:48:49;;;;;;;;;;;22.90;99.90;;;;;;4211630;28;19998;-58
2022/08/19 10:53:12;;;;;;;;;;;23.20;99.90;;;;;;4215092;28;19924;-57
2022/08/19 10:57:36;;;;;;;;;;;23.00;99.90;;;;;;4219841;28;19923;-57
2022/08/19 10:59:58;;;;;;;;;;;22.80;99.90;;;;;;4205527;28;20352;-57
2022/08/19 11:02:01;;;;;;;;;;;22.70;99.90;;;;;;4204853;28;19924;-57
2022/08/19 11:04:08;;;;;;;;;;;22.80;99.90;;;;;;4199851;28;20375;-56
2022/08/19 11:06:10;;;;;;;;;;;22.70;99.90;;;;;;4195617;28;19925;-57
2022/08/19 11:08:12;;;;;;;;;;;22.80;99.90;;;;;;4185252;28;19928;-57
2022/08/19 11:10:24;;;;;;;;;;;22.80;99.90;;;;;;4211975;28;19931;-57
2022/08/19 11:12:27;;;;;;;;;;;22.90;99.90;;;;;;4211572;28;19928;-56
2022/08/19 11:14:30;;;;;;;;;;;23.00;99.90;;;;;;4210357;28;19928;-57
2022/08/19 11:16:33;;;;;;;;;;;23.10;99.90;;;;;;4214905;28;19928;-57
2022/08/19 11:18:40;;;;;;;;;;;23.10;99.90;;;;;;4201129;28;19936;-56
2022/08/19 11:20:42;;;;;;;;;;;23.00;99.90;;;;;;4200286;28;19924;-56
2022/08/19 11:22:44;;;;;;;;;;;23.00;99.90;;;;;;4203199;28;19925;-56
2022/08/19 11:24:46;;;;;;;;;;;22.90;99.90;;;;;;4211857;28;20492;-58
2022/08/19 11:26:49;;;;;;;;;;;22.40;99.90;;;;;;4211854;28;19935;-57
2022/08/19 11:28:54;;;;;;;;;;;21.30;99.90;;;;;;4212125;28;19974;-58
2022/08/19 11:30:56;;;;;;;;;;;20.30;99.90;;;;;;4211644;28;19924;-58
2022/08/19 11:33:00;;;;;;;;;;;20.00;99.90;;;;;;4211537;28;19935;-59
2022/08/19 11:35:02;;;;;;;;;;;19.80;99.90;;;;;;4211995;28;20470;-59
2022/08/19 11:37:05;;;;;;;;;;;19.80;99.90;;;;;;4208359;28;19968;-60
2022/08/19 11:39:11;;;;;;;;;;;19.00;99.90;;;;;;4212113;28;20395;-58
2022/08/19 11:41:13;;;;;;;;;;;19.30;99.90;;;;;;4194967;28;19986;-59
2022/08/19 11:43:15;;;;;;;;;;;19.50;99.90;;;;;;4202301;28;19928;-59
2022/08/19 11:45:17;;;;;;;;;;;19.20;99.90;;;;;;4211675;28;20304;-60
2022/08/19 11:47:19;;;;;;;;;;;19.10;99.90;;;;;;4214144;28;19925;-58
2022/08/19 11:49:22;;;;;;;;;;;18.90;99.90;;;;;;4214918;28;19981;-57
2022/08/19 11:51:24;;;;;;;;;;;18.90;99.90;;;;;;4214490;28;20399;-57
2022/08/19 11:53:26;;;;;;;;;;;18.80;99.90;;;;;;4214877;28;20337;-58
2022/08/19 11:55:28;;;;;;;;;;;18.60;99.90;;;;;;4214785;28;20026;-57
2022/08/19 11:57:31;;;;;;;;;;;18.60;99.90;;;;;;4215118;28;20604;-57
2022/08/19 11:59:32;;;;;;;;;;;18.80;99.90;;;;;;4214826;28;19985;-58
2022/08/19 12:01:36;;;;;;;;;;;18.80;99.90;;;;;;4212057;28;20002;-59
2022/08/19 12:03:38;;;;;;;;;;;19.00;99.90;;;;;;4214386;28;20498;-58
2022/08/19 12:05:41;;;;;;;;;;;19.00;99.90;;;;;;4214600;28;20303;-57
2022/08/19 12:07:43;;;;;;;;;;;18.90;99.90;;;;;;4214516;28;19963;-57
2022/08/19 12:09:47;;;;;;;;;;;18.80;99.90;;;;;;4214248;28;20415;-57
2022/08/19 12:11:50;;;;;;;;;;;18.70;99.90;;;;;;4213955;28;19924;-57
2022/08/19 12:13:53;;;;;;;;;;;18.70;99.90;;;;;;4217455;28;19924;-56
2022/08/19 12:15:55;;;;;;;;;;;18.60;99.90;;;;;;4211624;28;19929;-59
2022/08/19 12:17:57;;;;;;;;;;;18.60;99.90;;;;;;4201877;28;20030;-56
2022/08/19 12:19:59;;;;;;;;;;;18.70;99.90;;;;;;4216457;28;19932;-57
2022/08/19 12:22:03;;;;;;;;;;;18.70;99.90;;;;;;4214322;28;19928;-57
2022/08/19 12:24:05;;;;;;;;;;;18.70;99.90;;;;;;4209461;28;19924;-57